createdAt,value
2022-10-06T00:00:58.873Z,60.75
2022-10-06T00:02:02.993Z,60.82
2022-10-06T00:03:07.397Z,60.76
2022-10-06T00:04:11.920Z,60.83
2022-10-06T00:05:16.026Z,60.83
2022-10-06T00:06:20.112Z,60.88
2022-10-06T00:07:24.257Z,60.83
2022-10-06T00:08:29.750Z,60.78
2022-10-06T00:09:34.097Z,60.81
2022-10-06T00:10:38.181Z,60.88
2022-10-06T00:11:42.358Z,60.87
2022-10-06T00:12:46.502Z,60.82
2022-10-06T00:13:50.637Z,60.85
2022-10-06T00:14:54.748Z,60.9
2022-10-06T00:15:59.070Z,60.84
2022-10-06T00:17:03.274Z,60.89
2022-10-06T00:18:07.399Z,60.78
2022-10-06T00:19:11.533Z,60.82
2022-10-06T00:20:15.626Z,60.73
2022-10-06T00:21:24.992Z,60.74
2022-10-06T00:22:36.010Z,60.8
2022-10-06T00:23:40.115Z,60.82
2022-10-06T00:24:44.265Z,60.69
2022-10-06T00:25:48.376Z,60.69
2022-10-06T00:26:52.501Z,60.86
2022-10-06T00:27:56.831Z,60.76
2022-10-06T00:29:00.930Z,60.78
2022-10-06T00:30:05.055Z,60.78
2022-10-06T00:31:09.303Z,60.77
2022-10-06T00:32:13.434Z,60.83
2022-10-06T00:33:17.561Z,60.79
2022-10-06T00:34:21.695Z,60.69
2022-10-06T00:35:25.832Z,60.78
2022-10-06T00:36:29.967Z,60.81
2022-10-06T00:37:34.087Z,60.86
2022-10-06T00:38:38.192Z,60.82
2022-10-06T00:39:42.371Z,60.84
2022-10-06T00:40:46.488Z,60.89
2022-10-06T00:41:50.582Z,60.78
2022-10-06T00:42:54.675Z,60.73
2022-10-06T00:43:58.874Z,60.66
2022-10-06T00:45:02.971Z,60.68
2022-10-06T00:46:07.334Z,60.71
2022-10-06T00:47:11.444Z,60.74
2022-10-06T00:48:15.524Z,60.76
2022-10-06T00:49:19.623Z,60.74
2022-10-06T00:50:23.731Z,60.77
2022-10-06T00:51:27.826Z,61.04
2022-10-06T00:52:31.925Z,61.08
2022-10-06T00:53:36.012Z,61.02
2022-10-06T00:54:40.131Z,60.99
2022-10-06T00:55:44.227Z,61.09
2022-10-06T00:56:48.422Z,61.06
2022-10-06T00:57:52.519Z,61.07
2022-10-06T00:58:56.630Z,61.1
2022-10-06T01:00:00.757Z,61.09
2022-10-06T01:01:05.165Z,61
2022-10-06T01:02:09.321Z,61.13
2022-10-06T01:03:13.436Z,61.09
2022-10-06T01:04:17.543Z,61
2022-10-06T01:05:21.631Z,61.04
2022-10-06T01:06:25.728Z,61.13
2022-10-06T01:07:29.831Z,61.02
2022-10-06T01:08:34.339Z,61.06
2022-10-06T01:09:38.425Z,61.1
2022-10-06T01:10:42.505Z,61.07
2022-10-06T01:11:46.625Z,61.08
2022-10-06T01:12:50.706Z,61.06
2022-10-06T01:13:54.792Z,61.04
2022-10-06T01:14:58.883Z,61.07
2022-10-06T01:16:03.160Z,61.01
2022-10-06T01:17:07.309Z,61.02
2022-10-06T01:18:11.397Z,60.98
2022-10-06T01:19:15.501Z,61.03
2022-10-06T01:20:19.605Z,60.99
2022-10-06T01:21:23.718Z,61.08
2022-10-06T01:22:27.823Z,61.06
2022-10-06T01:23:31.919Z,61.01
2022-10-06T01:24:36.031Z,61.03
2022-10-06T01:25:40.109Z,61.03
2022-10-06T01:26:44.224Z,61.17
2022-10-06T01:27:48.307Z,61.24
2022-10-06T01:28:52.551Z,61.15
2022-10-06T01:29:56.631Z,61.15
2022-10-06T01:31:00.846Z,61.12
2022-10-06T01:32:04.997Z,60.97
2022-10-06T01:33:09.136Z,61.03
2022-10-06T01:34:13.228Z,60.95
2022-10-06T01:35:17.342Z,61.04
2022-10-06T01:36:21.449Z,61.05
2022-10-06T01:37:25.563Z,61.08
2022-10-06T01:38:31.014Z,61.1
2022-10-06T01:39:35.492Z,61.12
2022-10-06T01:40:39.581Z,61.18
2022-10-06T01:41:43.696Z,61.15
2022-10-06T01:42:47.790Z,61.19
2022-10-06T01:43:51.927Z,61.17
2022-10-06T01:44:56.031Z,61.04
2022-10-06T01:46:00.451Z,61.13
2022-10-06T01:47:04.620Z,61.08
2022-10-06T01:48:08.722Z,60.98
2022-10-06T01:49:12.860Z,61.08
2022-10-06T01:50:16.937Z,61.08
2022-10-06T01:51:21.030Z,61.12
2022-10-06T01:52:25.126Z,61.38
2022-10-06T01:53:29.229Z,61.35
2022-10-06T01:54:33.346Z,61.43
2022-10-06T01:55:37.452Z,61.48
2022-10-06T01:56:41.577Z,61.39
2022-10-06T01:57:45.649Z,61.36
2022-10-06T01:58:49.786Z,61.41
2022-10-06T01:59:56.867Z,61.48
2022-10-06T02:01:00.952Z,61.35
2022-10-06T02:02:05.302Z,61.44
2022-10-06T02:03:09.432Z,61.46
2022-10-06T02:04:13.747Z,61.44
2022-10-06T02:05:17.872Z,61.38
2022-10-06T02:06:22.284Z,61.35
2022-10-06T02:07:26.421Z,61.53
2022-10-06T02:08:31.970Z,61.41
2022-10-06T02:09:36.195Z,61.38
2022-10-06T02:10:40.341Z,61.31
2022-10-06T02:11:44.605Z,61.38
2022-10-06T02:12:48.698Z,61.3
2022-10-06T02:13:52.785Z,61.34
2022-10-06T02:14:56.889Z,61.21
2022-10-06T02:16:01.307Z,61.29
2022-10-06T02:17:05.477Z,61.36
2022-10-06T02:18:09.576Z,61.34
2022-10-06T02:19:13.697Z,61.26
2022-10-06T02:20:17.792Z,61.23
2022-10-06T02:21:21.908Z,61.31
2022-10-06T02:22:26.024Z,61.39
2022-10-06T02:23:30.138Z,61.49
2022-10-06T02:24:34.242Z,61.4
2022-10-06T02:25:38.377Z,61.41
2022-10-06T02:26:42.497Z,61.34
2022-10-06T02:27:46.619Z,61.32
2022-10-06T02:28:51.135Z,61.27
2022-10-06T02:29:55.308Z,61.22
2022-10-06T02:30:59.544Z,61.31
2022-10-06T02:32:03.935Z,61.26
2022-10-06T02:33:08.076Z,61.26
2022-10-06T02:34:12.168Z,61.37
2022-10-06T02:35:16.324Z,61.23
2022-10-06T02:36:20.468Z,61.32
2022-10-06T02:37:24.573Z,61.26
2022-10-06T02:38:29.965Z,60.43
2022-10-06T02:39:34.292Z,60.15
2022-10-06T02:40:38.400Z,60.2
2022-10-06T02:41:42.496Z,60.12
2022-10-06T02:42:46.624Z,60.06
2022-10-06T02:43:50.774Z,59.96
2022-10-06T02:44:55.040Z,59.72
2022-10-06T02:45:59.274Z,59.48
2022-10-06T02:47:03.397Z,59.23
2022-10-06T02:48:07.545Z,58.96
2022-10-06T02:49:11.690Z,58.73
2022-10-06T02:50:15.785Z,58.53
2022-10-06T02:51:19.937Z,58.29
2022-10-06T02:52:24.044Z,58.2
2022-10-06T02:53:28.199Z,58.06
2022-10-06T02:54:32.306Z,57.96
2022-10-06T02:55:36.403Z,57.97
2022-10-06T02:56:40.509Z,57.99
2022-10-06T02:57:44.621Z,58.08
2022-10-06T02:58:48.767Z,58.15
2022-10-06T02:59:52.861Z,58.18
2022-10-06T03:00:56.983Z,58.19
2022-10-06T03:02:01.680Z,58.21
2022-10-06T03:03:06.053Z,58.43
2022-10-06T03:04:10.230Z,58.78
2022-10-06T03:05:14.335Z,58.78
2022-10-06T03:06:18.438Z,58.62
2022-10-06T03:07:22.516Z,58.67
2022-10-06T03:08:27.447Z,58.6
2022-10-06T03:09:31.745Z,58.54
2022-10-06T03:10:35.900Z,58.48
2022-10-06T03:11:40.017Z,58.27
2022-10-06T03:12:44.129Z,58.1
2022-10-06T03:13:48.246Z,57.94
2022-10-06T03:14:52.381Z,57.72
2022-10-06T03:15:56.605Z,57.55
2022-10-06T03:17:00.728Z,57.48
2022-10-06T03:18:04.834Z,57.52
2022-10-06T03:19:08.982Z,57.53
2022-10-06T03:20:13.118Z,57.54
2022-10-06T03:21:17.254Z,57.65
2022-10-06T03:22:21.376Z,57.62
2022-10-06T03:23:25.473Z,57.65
2022-10-06T03:24:29.576Z,57.69
2022-10-06T03:25:33.711Z,57.8
2022-10-06T03:26:37.805Z,57.9
2022-10-06T03:27:41.920Z,57.96
2022-10-06T03:28:46.350Z,58.05
2022-10-06T03:29:50.490Z,58.04
2022-10-06T03:30:54.626Z,58.09
2022-10-06T03:31:58.721Z,58.11
2022-10-06T03:33:02.828Z,58.08
2022-10-06T03:34:06.920Z,57.95
2022-10-06T03:35:11.576Z,57.83
2022-10-06T03:36:15.830Z,57.78
2022-10-06T03:37:19.935Z,57.82
2022-10-06T03:38:24.049Z,57.8
2022-10-06T03:39:28.175Z,57.84
2022-10-06T03:40:32.274Z,57.91
2022-10-06T03:41:36.389Z,57.99
2022-10-06T03:42:40.491Z,58.02
2022-10-06T03:43:44.616Z,58.08
2022-10-06T03:44:48.771Z,58.15
2022-10-06T03:45:52.908Z,58.18
2022-10-06T03:46:57.323Z,58.3
2022-10-06T03:48:01.463Z,58.3
2022-10-06T03:49:05.575Z,58.47
2022-10-06T03:50:09.874Z,58.4
2022-10-06T03:51:13.968Z,58.5
2022-10-06T03:52:25.143Z,58.56
2022-10-06T03:53:30.012Z,58.69
2022-10-06T03:54:34.134Z,58.74
2022-10-06T03:55:38.229Z,58.75
2022-10-06T03:56:42.371Z,58.84
2022-10-06T03:57:46.524Z,58.81
2022-10-06T03:58:50.661Z,58.99
2022-10-06T03:59:54.932Z,58.96
2022-10-06T04:00:59.272Z,59
2022-10-06T04:02:03.680Z,59.12
2022-10-06T04:03:07.909Z,59.19
2022-10-06T04:04:12.049Z,59.58
2022-10-06T04:05:16.184Z,59.31
2022-10-06T04:06:20.382Z,59.33
2022-10-06T04:07:24.513Z,59.45
2022-10-06T04:08:29.981Z,59.45
2022-10-06T04:09:34.313Z,59.49
2022-10-06T04:10:38.430Z,59.53
2022-10-06T04:11:42.594Z,59.5
2022-10-06T04:12:46.707Z,59.61
2022-10-06T04:13:50.834Z,59.65
2022-10-06T04:15:01.417Z,59.68
2022-10-06T04:16:05.713Z,59.65
2022-10-06T04:17:09.863Z,59.66
2022-10-06T04:18:13.984Z,59.63
2022-10-06T04:19:18.106Z,59.67
2022-10-06T04:20:22.231Z,59.59
2022-10-06T04:21:26.387Z,59.88
2022-10-06T04:22:30.489Z,59.97
2022-10-06T04:23:34.596Z,59.86
2022-10-06T04:24:38.782Z,59.96
2022-10-06T04:25:42.894Z,59.89
2022-10-06T04:26:47.052Z,59.96
2022-10-06T04:27:51.211Z,60.66
2022-10-06T04:28:55.324Z,60.4
2022-10-06T04:29:59.505Z,60.24
2022-10-06T04:31:03.666Z,60.25
2022-10-06T04:32:07.808Z,60.27
2022-10-06T04:33:11.933Z,60.43
2022-10-06T04:34:16.070Z,60.31
2022-10-06T04:35:20.235Z,60.12
2022-10-06T04:36:24.356Z,60.16
2022-10-06T04:37:28.473Z,60.25
2022-10-06T04:38:33.876Z,60.38
2022-10-06T04:39:38.013Z,60.52
2022-10-06T04:40:42.177Z,60.57
2022-10-06T04:41:46.290Z,60.54
2022-10-06T04:42:50.409Z,60.7
2022-10-06T04:43:54.554Z,60.69
2022-10-06T04:44:58.685Z,60.78
2022-10-06T04:46:44.360Z,60.92
2022-10-06T04:47:48.840Z,60.85
2022-10-06T04:48:52.978Z,60.66
2022-10-06T04:49:57.191Z,60.09
2022-10-06T04:51:01.355Z,59.6
2022-10-06T04:52:05.488Z,59.37
2022-10-06T04:53:09.617Z,59.05
2022-10-06T04:54:13.741Z,58.67
2022-10-06T04:55:17.866Z,58.31
2022-10-06T04:56:22.053Z,58.4
2022-10-06T04:57:26.186Z,58.38
2022-10-06T04:58:31.756Z,58.36
2022-10-06T04:59:36.069Z,59.21
2022-10-06T05:00:40.384Z,59.4
2022-10-06T05:01:44.597Z,59.57
2022-10-06T05:02:49.045Z,59.57
2022-10-06T05:03:53.216Z,59.24
2022-10-06T05:04:58.649Z,59.48
2022-10-06T05:06:02.838Z,59.99
2022-10-06T05:07:06.999Z,60
2022-10-06T05:08:11.335Z,60.2
2022-10-06T05:09:15.519Z,60.05
2022-10-06T05:10:19.658Z,59.92
2022-10-06T05:11:27.671Z,60.12
2022-10-06T05:12:31.845Z,60.32
2022-10-06T05:13:36.023Z,60.57
2022-10-06T05:14:40.185Z,60.71
2022-10-06T05:15:44.370Z,60.9
2022-10-06T05:16:48.827Z,60.42
2022-10-06T05:17:52.992Z,60.33
2022-10-06T05:18:58.887Z,60.25
2022-10-06T05:20:06.966Z,59.98
2022-10-06T05:21:13.699Z,60.16
2022-10-06T05:22:24.663Z,60.44
2022-10-06T05:23:28.915Z,60.33
2022-10-06T05:24:33.053Z,59.96
2022-10-06T05:25:37.182Z,60.08
2022-10-06T05:26:41.297Z,59.69
2022-10-06T05:27:45.418Z,59.71
2022-10-06T05:28:59.030Z,59.73
2022-10-06T05:30:03.156Z,59.7
2022-10-06T05:31:07.334Z,59.79
2022-10-06T05:32:11.565Z,59.65
2022-10-06T05:33:15.698Z,59.46
2022-10-06T05:34:19.858Z,59.75
2022-10-06T05:35:23.984Z,60.5
2022-10-06T05:36:28.157Z,60.77
2022-10-06T05:37:32.320Z,61.11
2022-10-06T05:38:36.653Z,61.27
2022-10-06T05:39:40.814Z,61.24
2022-10-06T05:40:44.933Z,61.23
2022-10-06T05:41:49.082Z,61.25
2022-10-06T05:42:53.195Z,61.31
2022-10-06T05:43:58.521Z,61.34
2022-10-06T05:45:03.831Z,61.28
2022-10-06T05:46:08.158Z,61.33
2022-10-06T05:47:12.563Z,61.33
2022-10-06T05:48:19.692Z,61.53
2022-10-06T05:49:23.834Z,61.36
2022-10-06T05:50:27.972Z,61.32
2022-10-06T05:51:33.233Z,61.15
2022-10-06T05:52:37.380Z,61.22
2022-10-06T05:53:41.514Z,61.21
2022-10-06T05:54:45.660Z,61.29
2022-10-06T05:55:49.875Z,61.37
2022-10-06T05:56:54.053Z,61.42
2022-10-06T05:57:58.205Z,61.44
2022-10-06T05:59:02.350Z,61.37
2022-10-06T06:00:06.473Z,61.42
2022-10-06T06:01:10.730Z,61.38
2022-10-06T06:02:15.642Z,61.41
2022-10-06T06:03:19.849Z,61.38
2022-10-06T06:04:23.981Z,61.37
2022-10-06T06:05:28.150Z,61.36
2022-10-06T06:06:32.305Z,61.36
2022-10-06T06:07:36.456Z,61.32
2022-10-06T06:08:40.583Z,61.53
2022-10-06T06:09:44.727Z,61.39
2022-10-06T06:10:48.875Z,61.36
2022-10-06T06:11:53.080Z,61.25
2022-10-06T06:12:57.263Z,61
2022-10-06T06:14:01.548Z,60.71
2022-10-06T06:15:05.713Z,60.17
2022-10-06T06:16:10.166Z,60.16
2022-10-06T06:17:14.382Z,60.19
2022-10-06T06:18:18.540Z,60.49
2022-10-06T06:19:29.018Z,60.52
2022-10-06T06:20:33.271Z,60.48
2022-10-06T06:21:37.402Z,60.69
2022-10-06T06:22:41.556Z,60.74
2022-10-06T06:23:46.030Z,60.79
2022-10-06T06:24:50.170Z,60.83
2022-10-06T06:25:56.736Z,60.83
2022-10-06T06:27:04.028Z,60.83
2022-10-06T06:28:08.406Z,60.8
2022-10-06T06:29:12.589Z,60.79
2022-10-06T06:30:16.721Z,60.78
2022-10-06T06:31:22.485Z,60.77
2022-10-06T06:32:26.690Z,60.68
2022-10-06T06:33:30.847Z,60.59
2022-10-06T06:34:34.979Z,60.49
2022-10-06T06:35:39.117Z,60.43
2022-10-06T06:36:43.240Z,60.45
2022-10-06T06:37:47.384Z,60.5
2022-10-06T06:38:51.610Z,60.75
2022-10-06T06:39:55.740Z,61.27
2022-10-06T06:40:59.871Z,61.04
2022-10-06T06:42:04.008Z,61.12
2022-10-06T06:43:08.140Z,60.88
2022-10-06T06:44:12.314Z,60.87
2022-10-06T06:45:16.467Z,60.59
2022-10-06T06:46:21.210Z,60.48
2022-10-06T06:47:28.602Z,60.52
2022-10-06T06:48:34.203Z,60.58
2022-10-06T06:49:38.409Z,60.61
2022-10-06T06:50:42.602Z,60.61
2022-10-06T06:51:46.737Z,60.62
2022-10-06T06:52:50.885Z,60.6
2022-10-06T06:53:55.027Z,60.6
2022-10-06T06:54:59.195Z,60.54
2022-10-06T06:56:03.312Z,60.53
2022-10-06T06:57:07.424Z,60.56
2022-10-06T06:58:11.548Z,60.52
2022-10-06T06:59:15.703Z,60.52
2022-10-06T07:00:19.857Z,60.5
2022-10-06T07:01:24.106Z,60.5
2022-10-06T07:02:28.581Z,60.51
2022-10-06T07:03:59.775Z,60.49
2022-10-06T07:05:03.930Z,60.5
2022-10-06T07:06:08.061Z,60.44
2022-10-06T07:07:12.199Z,60.44
2022-10-06T07:08:16.342Z,60.4
2022-10-06T07:09:20.488Z,60.4
2022-10-06T07:10:24.758Z,60.37
2022-10-06T07:11:28.929Z,60.38
2022-10-06T07:12:33.044Z,60.4
2022-10-06T07:13:37.358Z,60.37
2022-10-06T07:14:41.932Z,60.37
2022-10-06T07:15:46.423Z,60.38
2022-10-06T07:16:50.583Z,60.4
2022-10-06T07:17:54.722Z,60.39
2022-10-06T07:18:58.864Z,60.41
2022-10-06T07:20:03.017Z,60.4
2022-10-06T07:21:07.152Z,60.39
2022-10-06T07:22:11.310Z,60.42
2022-10-06T07:23:15.468Z,60.4
2022-10-06T07:24:19.593Z,60.4
2022-10-06T07:25:28.152Z,60.39
2022-10-06T07:26:32.328Z,60.4
2022-10-06T07:27:36.461Z,60.34
2022-10-06T07:28:40.871Z,60.35
2022-10-06T07:29:45.048Z,60.3
2022-10-06T07:30:49.198Z,60.27
2022-10-06T07:31:53.352Z,60.23
2022-10-06T07:32:57.511Z,60.22
2022-10-06T07:34:01.679Z,60.2
2022-10-06T07:35:05.821Z,60.18
2022-10-06T07:36:10.001Z,60.16
2022-10-06T07:37:14.129Z,60.15
2022-10-06T07:38:18.245Z,60.17
2022-10-06T07:39:22.388Z,60.14
2022-10-06T07:40:26.536Z,60.09
2022-10-06T07:41:30.689Z,60.08
2022-10-06T07:42:34.837Z,60.07
2022-10-06T07:43:38.998Z,60.06
2022-10-06T07:44:43.145Z,60.05
2022-10-06T07:45:47.550Z,60.05
2022-10-06T07:46:51.712Z,60
2022-10-06T07:47:55.848Z,60
2022-10-06T07:48:59.996Z,59.95
2022-10-06T07:50:04.158Z,59.97
2022-10-06T07:51:08.295Z,59.96
2022-10-06T07:52:12.478Z,59.98
2022-10-06T07:53:16.651Z,59.95
2022-10-06T07:54:27.604Z,59.93
2022-10-06T07:55:31.803Z,59.92
2022-10-06T07:56:35.936Z,59.94
2022-10-06T07:57:40.071Z,59.93
2022-10-06T07:58:44.216Z,59.96
2022-10-06T07:59:48.350Z,59.99
2022-10-06T08:00:52.479Z,59.95
2022-10-06T08:01:56.865Z,59.99
2022-10-06T08:03:01.319Z,60.03
2022-10-06T08:04:05.478Z,60.04
2022-10-06T08:05:09.609Z,60.06
2022-10-06T08:06:13.752Z,60.05
2022-10-06T08:07:17.884Z,60.08
2022-10-06T08:08:22.041Z,60.06
2022-10-06T08:09:26.166Z,60.03
2022-10-06T08:10:30.302Z,59.96
2022-10-06T08:11:34.464Z,59.94
2022-10-06T08:12:39.110Z,59.87
2022-10-06T08:13:43.289Z,59.83
2022-10-06T08:14:47.444Z,59.76
2022-10-06T08:15:51.738Z,59.73
2022-10-06T08:16:56.032Z,59.66
2022-10-06T08:18:00.146Z,59.64
2022-10-06T08:19:04.363Z,59.64
2022-10-06T08:20:08.500Z,59.62
2022-10-06T08:21:12.643Z,59.62
2022-10-06T08:22:16.793Z,59.6
2022-10-06T08:23:20.935Z,59.58
2022-10-06T08:24:25.227Z,59.53
2022-10-06T08:25:32.330Z,59.47
2022-10-06T08:26:36.444Z,59.4
2022-10-06T08:27:40.590Z,59.36
2022-10-06T08:28:44.972Z,59.34
2022-10-06T08:29:49.223Z,59.32
2022-10-06T08:30:53.400Z,59.31
2022-10-06T08:31:57.819Z,59.28
2022-10-06T08:33:01.985Z,59.25
2022-10-06T08:34:13.106Z,59.21
2022-10-06T08:35:17.242Z,59.17
2022-10-06T08:36:21.411Z,59.14
2022-10-06T08:37:25.615Z,59.1
2022-10-06T08:38:29.937Z,59.05
2022-10-06T08:39:34.095Z,59.02
2022-10-06T08:40:38.319Z,58.97
2022-10-06T08:41:42.459Z,58.92
2022-10-06T08:42:46.644Z,58.88
2022-10-06T08:43:50.765Z,58.93
2022-10-06T08:44:55.972Z,58.9
2022-10-06T08:46:00.584Z,58.93
2022-10-06T08:47:04.739Z,59
2022-10-06T08:48:08.883Z,59.06
2022-10-06T08:49:13.019Z,59.12
2022-10-06T08:50:17.134Z,59.19
2022-10-06T08:51:21.483Z,59.25
2022-10-06T08:52:25.635Z,59.3
2022-10-06T08:53:29.796Z,59.32
2022-10-06T08:54:33.938Z,59.34
2022-10-06T08:55:38.079Z,59.34
2022-10-06T08:56:42.212Z,59.27
2022-10-06T08:57:46.380Z,59.19
2022-10-06T08:58:50.575Z,59.05
2022-10-06T08:59:55.647Z,58.9
2022-10-06T09:01:00.169Z,58.84
2022-10-06T09:02:04.655Z,58.83
2022-10-06T09:03:08.823Z,58.83
2022-10-06T09:04:12.957Z,58.82
2022-10-06T09:05:17.094Z,58.8
2022-10-06T09:06:21.221Z,58.84
2022-10-06T09:07:25.388Z,58.84
2022-10-06T09:08:29.548Z,58.85
2022-10-06T09:09:33.690Z,58.91
2022-10-06T09:10:37.862Z,58.92
2022-10-06T09:11:42.010Z,58.99
2022-10-06T09:12:46.138Z,59.03
2022-10-06T09:13:50.277Z,59.05
2022-10-06T09:14:54.410Z,59
2022-10-06T09:15:58.815Z,59.05
2022-10-06T09:17:03.047Z,59.07
2022-10-06T09:18:07.223Z,59.16
2022-10-06T09:19:11.652Z,59.15
2022-10-06T09:20:15.796Z,59.18
2022-10-06T09:21:19.949Z,59.21
2022-10-06T09:22:24.110Z,59.25
2022-10-06T09:23:28.260Z,59.26
2022-10-06T09:24:32.387Z,59.26
2022-10-06T09:25:36.539Z,59.25
2022-10-06T09:26:40.653Z,59.26
2022-10-06T09:27:44.789Z,59.29
2022-10-06T09:28:48.931Z,59.3
2022-10-06T09:29:53.447Z,59.29
2022-10-06T09:30:57.975Z,59.33
2022-10-06T09:32:02.190Z,59.31
2022-10-06T09:33:08.692Z,59.34
2022-10-06T09:34:12.826Z,59.33
2022-10-06T09:35:16.936Z,59.27
2022-10-06T09:36:21.108Z,59.21
2022-10-06T09:37:25.223Z,59.15
2022-10-06T09:38:29.358Z,59.08
2022-10-06T09:39:33.523Z,59
2022-10-06T09:40:37.680Z,58.84
2022-10-06T09:41:41.836Z,58.86
2022-10-06T09:42:45.982Z,58.82
2022-10-06T09:43:50.164Z,58.85
2022-10-06T09:44:54.326Z,58.88
2022-10-06T09:45:58.704Z,58.92
2022-10-06T09:47:02.877Z,58.91
2022-10-06T09:48:06.992Z,58.93
2022-10-06T09:49:11.119Z,58.88
2022-10-06T09:50:15.280Z,58.89
2022-10-06T09:51:19.408Z,58.91
2022-10-06T09:52:23.544Z,58.9
2022-10-06T09:53:27.702Z,58.93
2022-10-06T09:54:31.907Z,58.92
2022-10-06T09:55:36.048Z,58.9
2022-10-06T09:56:40.166Z,58.82
2022-10-06T09:57:44.327Z,58.65
2022-10-06T09:58:48.453Z,58.62
2022-10-06T09:59:52.621Z,58.51
2022-10-06T10:00:57.075Z,58.53
2022-10-06T10:02:01.467Z,58.45
2022-10-06T10:03:05.973Z,58.31
2022-10-06T10:04:22.963Z,58.33
2022-10-06T10:05:27.101Z,58.31
2022-10-06T10:06:31.414Z,58.27
2022-10-06T10:07:35.589Z,58.16
2022-10-06T10:08:39.717Z,58.12
2022-10-06T10:09:43.847Z,58.07
2022-10-06T10:10:47.961Z,58.02
2022-10-06T10:11:52.088Z,57.96
2022-10-06T10:12:56.237Z,57.94
2022-10-06T10:14:00.353Z,57.91
2022-10-06T10:15:04.499Z,57.91
2022-10-06T10:16:08.881Z,57.83
2022-10-06T10:17:13.070Z,57.77
2022-10-06T10:18:17.218Z,57.75
2022-10-06T10:19:21.345Z,57.71
2022-10-06T10:20:25.487Z,57.7
2022-10-06T10:21:29.634Z,57.64
2022-10-06T10:22:33.810Z,57.61
2022-10-06T10:23:37.969Z,57.59
2022-10-06T10:24:42.118Z,57.65
2022-10-06T10:25:46.253Z,57.62
2022-10-06T10:26:50.401Z,57.56
2022-10-06T10:27:54.536Z,57.51
2022-10-06T10:28:58.661Z,57.48
2022-10-06T10:30:02.829Z,57.49
2022-10-06T10:31:07.159Z,57.48
2022-10-06T10:32:11.305Z,57.5
2022-10-06T10:33:15.737Z,57.53
2022-10-06T10:34:26.372Z,57.53
2022-10-06T10:35:30.538Z,57.47
2022-10-06T10:36:34.666Z,57.42
2022-10-06T10:37:38.828Z,57.45
2022-10-06T10:38:43.212Z,57.42
2022-10-06T10:39:47.358Z,57.44
2022-10-06T10:40:51.514Z,57.44
2022-10-06T10:41:55.647Z,57.45
2022-10-06T10:42:59.806Z,57.45
2022-10-06T10:44:06.124Z,57.55
2022-10-06T10:45:10.283Z,57.62
2022-10-06T10:46:14.559Z,57.63
2022-10-06T10:47:18.732Z,57.6
2022-10-06T10:48:22.870Z,57.59
2022-10-06T10:49:26.987Z,57.55
2022-10-06T10:50:31.137Z,57.59
2022-10-06T10:51:35.312Z,57.59
2022-10-06T10:52:39.466Z,57.6
2022-10-06T10:53:44.729Z,57.61
2022-10-06T10:54:48.894Z,57.61
2022-10-06T10:55:53.041Z,57.71
2022-10-06T10:56:57.208Z,57.75
2022-10-06T10:58:01.345Z,57.8
2022-10-06T10:59:05.487Z,57.93
2022-10-06T11:00:09.632Z,57.98
2022-10-06T11:01:14.023Z,58.01
2022-10-06T11:02:18.360Z,58
2022-10-06T11:03:22.520Z,58.02
2022-10-06T11:04:26.679Z,57.98
2022-10-06T11:05:31.047Z,57.91
2022-10-06T11:06:35.153Z,57.8
2022-10-06T11:07:39.288Z,57.73
2022-10-06T11:08:43.432Z,57.62
2022-10-06T11:09:47.565Z,57.52
2022-10-06T11:10:51.696Z,57.46
2022-10-06T11:11:55.919Z,57.44
2022-10-06T11:13:00.113Z,57.45
2022-10-06T11:14:04.268Z,57.42
2022-10-06T11:15:08.433Z,57.39
2022-10-06T11:16:12.687Z,57.39
2022-10-06T11:17:16.842Z,57.4
2022-10-06T11:18:23.454Z,57.37
2022-10-06T11:19:27.595Z,57.38
2022-10-06T11:20:31.798Z,57.34
2022-10-06T11:21:35.925Z,57.32
2022-10-06T11:22:40.068Z,57.32
2022-10-06T11:23:44.201Z,57.28
2022-10-06T11:24:48.501Z,57.38
2022-10-06T11:25:52.684Z,57.33
2022-10-06T11:26:56.805Z,57.23
2022-10-06T11:28:01.166Z,57.26
2022-10-06T11:29:05.436Z,57.32
2022-10-06T11:30:09.571Z,57.31
2022-10-06T11:31:15.724Z,57.31
2022-10-06T11:32:20.811Z,57.33
2022-10-06T11:33:24.945Z,57.3
2022-10-06T11:34:29.094Z,57.24
2022-10-06T11:35:33.283Z,57.25
2022-10-06T11:36:37.420Z,57.25
2022-10-06T11:37:41.651Z,57.26
2022-10-06T11:38:45.784Z,57.25
2022-10-06T11:39:49.935Z,57.25
2022-10-06T11:40:54.128Z,57.25
2022-10-06T11:41:58.294Z,57.26
2022-10-06T11:43:02.413Z,57.25
2022-10-06T11:44:06.558Z,57.29
2022-10-06T11:45:10.682Z,57.29
2022-10-06T11:46:15.104Z,57.28
2022-10-06T11:47:19.717Z,57.28
2022-10-06T11:48:24.976Z,57.27
2022-10-06T11:49:29.156Z,57.33
2022-10-06T11:50:33.308Z,57.38
2022-10-06T11:51:37.442Z,57.4
2022-10-06T11:52:41.558Z,57.41
2022-10-06T11:53:45.723Z,57.43
2022-10-06T11:54:49.845Z,57.39
2022-10-06T11:55:53.983Z,57.38
2022-10-06T11:56:58.127Z,57.32
2022-10-06T11:58:42.147Z,57.32
2022-10-06T11:59:46.811Z,57.34
2022-10-06T12:00:50.957Z,57.37
2022-10-06T12:01:55.741Z,57.42
2022-10-06T12:03:00.399Z,57.37
2022-10-06T12:04:04.629Z,57.39
2022-10-06T12:05:57.324Z,57.4
2022-10-06T12:07:01.632Z,57.4
2022-10-06T12:08:05.766Z,57.4
2022-10-06T12:09:09.895Z,57.38
2022-10-06T12:10:14.017Z,57.41
2022-10-06T12:11:18.153Z,57.44
2022-10-06T12:12:22.336Z,57.42
2022-10-06T12:17:05.434Z,57.44
2022-10-06T12:18:13.453Z,57.48
2022-10-06T12:19:17.606Z,57.5
2022-10-06T12:20:21.790Z,57.53
2022-10-06T12:21:25.937Z,57.53
2022-10-06T12:22:30.070Z,57.55
2022-10-06T12:23:34.235Z,57.66
2022-10-06T12:24:38.382Z,57.7
2022-10-06T12:25:42.507Z,57.79
2022-10-06T12:26:46.652Z,57.85
2022-10-06T12:27:50.796Z,57.94
2022-10-06T12:28:54.972Z,57.96
2022-10-06T12:30:00.578Z,57.98
2022-10-06T12:31:05.312Z,57.98
2022-10-06T12:32:09.865Z,57.97
2022-10-06T12:33:14.010Z,57.99
2022-10-06T12:34:18.175Z,57.99
2022-10-06T12:35:22.319Z,58
2022-10-06T12:36:26.477Z,58.13
2022-10-06T12:37:30.666Z,58.12
2022-10-06T12:38:34.795Z,58.15
2022-10-06T12:39:38.949Z,58.21
2022-10-06T12:40:43.110Z,58.23
2022-10-06T12:41:47.271Z,58.27
2022-10-06T12:42:51.407Z,58.33
2022-10-06T12:43:55.561Z,58.35
2022-10-06T12:45:01.073Z,58.39
2022-10-06T12:46:05.683Z,58.36
2022-10-06T12:47:09.847Z,58.33
2022-10-06T12:48:14.017Z,58.34
2022-10-06T12:49:18.157Z,58.35
2022-10-06T12:50:22.299Z,58.36
2022-10-06T12:51:26.684Z,58.34
2022-10-06T12:52:30.838Z,58.4
2022-10-06T12:53:35.163Z,58.45
2022-10-06T12:54:39.318Z,58.47
2022-10-06T12:55:43.487Z,58.49
2022-10-06T12:56:47.630Z,58.49
2022-10-06T12:57:51.785Z,58.53
2022-10-06T12:58:55.931Z,58.51
2022-10-06T13:00:00.122Z,58.54
2022-10-06T13:01:04.550Z,58.58
2022-10-06T13:02:08.999Z,58.6
2022-10-06T13:03:13.180Z,58.6
2022-10-06T13:04:17.335Z,58.63
2022-10-06T13:05:21.440Z,58.64
2022-10-06T13:06:29.236Z,58.63
2022-10-06T13:07:33.407Z,58.67
2022-10-06T13:08:37.548Z,58.66
2022-10-06T13:09:41.677Z,58.64
2022-10-06T13:10:45.891Z,58.64
2022-10-06T13:11:50.207Z,58.66
2022-10-06T13:12:54.392Z,58.66
2022-10-06T13:13:58.576Z,58.66
2022-10-06T13:15:03.265Z,58.69
2022-10-06T13:16:07.408Z,58.64
2022-10-06T13:17:11.716Z,58.61
2022-10-06T13:18:15.925Z,58.59
2022-10-06T13:19:20.092Z,58.58
2022-10-06T13:20:24.246Z,58.6
2022-10-06T13:21:28.396Z,58.6
2022-10-06T13:22:32.518Z,58.61
2022-10-06T13:23:36.697Z,58.57
2022-10-06T13:24:40.823Z,58.55
2022-10-06T13:25:44.967Z,58.51
2022-10-06T13:26:49.138Z,58.51
2022-10-06T13:27:53.275Z,58.54
2022-10-06T13:28:57.400Z,58.53
2022-10-06T13:30:02.555Z,58.56
2022-10-06T13:31:06.700Z,58.56
2022-10-06T13:32:10.928Z,58.64
2022-10-06T13:33:15.171Z,58.64
2022-10-06T13:34:19.314Z,58.57
2022-10-06T13:35:23.478Z,58.52
2022-10-06T13:36:27.617Z,58.47
2022-10-06T13:37:31.752Z,58.48
2022-10-06T13:38:35.945Z,58.47
2022-10-06T13:39:40.083Z,58.46
2022-10-06T13:40:47.364Z,58.49
2022-10-06T13:41:51.609Z,58.44
2022-10-06T13:42:55.961Z,58.46
2022-10-06T13:44:00.117Z,58.46
2022-10-06T13:45:04.264Z,58.44
2022-10-06T13:46:08.623Z,58.45
2022-10-06T13:47:12.823Z,58.39
2022-10-06T13:48:16.973Z,58.37
2022-10-06T13:49:21.412Z,58.34
2022-10-06T13:50:25.538Z,58.31
2022-10-06T13:51:29.655Z,58.34
2022-10-06T13:52:33.900Z,58.32
2022-10-06T13:53:38.316Z,58.32
2022-10-06T13:54:42.473Z,58.3
2022-10-06T13:55:46.618Z,58.33
2022-10-06T13:56:50.787Z,58.32
2022-10-06T13:57:54.911Z,58.31
2022-10-06T13:58:59.155Z,58.36
2022-10-06T14:00:04.103Z,58.38